Time;durP1;ratioP1;P1;durP2;ratioP2;P2;SDS_P1;SDS_P2;PMS_P1;PMS_P2;Temp;Humidity;BMP_temperature;BMP_pressure;BME280_temperature;BME280_humidity;BME280_pressure;Samples;Min_cycle;Max_cycle;Signal;HPM_P1;HPM_P2
2021/05/03 00:00:04;;;;;;;2.78;2.58;;;10.70;44.40;;;;;;1490000;39;20060;-50
2021/05/03 00:01:25;;;;;;;2.70;2.50;;;10.60;44.50;;;;;;1490508;39;20043;-49
2021/05/03 00:02:46;;;;;;;2.85;2.53;;;10.60;44.40;;;;;;1490621;39;20451;-50
2021/05/03 00:04:07;;;;;;;2.30;2.10;;;10.60;44.50;;;;;;1491072;39;20028;-52
2021/05/03 00:05:28;;;;;;;3.05;2.67;;;10.60;44.50;;;;;;1491337;39;20028;-48
2021/05/03 00:06:49;;;;;;;4.18;2.50;;;10.60;44.50;;;;;;1489409;39;20035;-53
2021/05/03 00:08:09;;;;;;;4.03;2.60;;;10.60;44.50;;;;;;1490720;39;20374;-50
2021/05/03 00:09:30;;;;;;;2.63;2.30;;;10.60;44.50;;;;;;1491227;39;20043;-53
2021/05/03 00:10:52;;;;;;;2.83;2.60;;;10.50;44.50;;;;;;1490409;39;20028;-53
2021/05/03 00:12:13;;;;;;;2.25;2.08;;;10.50;44.70;;;;;;1492294;39;20346;-49
2021/05/03 00:13:34;;;;;;;2.88;2.38;;;10.50;44.70;;;;;;1490857;39;20039;-49
2021/05/03 00:14:55;;;;;;;3.03;2.28;;;10.50;44.70;;;;;;1490974;39;20429;-52
2021/05/03 00:16:16;;;;;;;2.55;2.35;;;10.50;44.70;;;;;;1491326;39;20032;-49
2021/05/03 00:17:37;;;;;;;2.70;2.50;;;10.50;44.80;;;;;;1491499;39;20030;-53
2021/05/03 00:18:58;;;;;;;2.65;2.45;;;10.50;45.30;;;;;;1492163;39;20040;-50
2021/05/03 00:20:19;;;;;;;2.65;2.38;;;10.50;44.70;;;;;;1491999;39;20028;-53
2021/05/03 00:21:40;;;;;;;2.78;2.50;;;10.50;44.80;;;;;;1491603;39;20036;-52
2021/05/03 00:23:01;;;;;;;5.43;2.42;;;10.50;44.80;;;;;;1485797;39;20274;-48
2021/05/03 00:24:22;;;;;;;2.60;2.40;;;10.50;44.80;;;;;;1490430;39;20036;-49
2021/05/03 00:25:43;;;;;;;2.70;2.40;;;10.40;44.80;;;;;;1490479;39;20462;-54
2021/05/03 00:27:04;;;;;;;2.55;2.35;;;10.40;44.90;;;;;;1492127;39;20016;-49
2021/05/03 00:28:25;;;;;;;3.17;2.42;;;10.40;45.00;;;;;;1490103;39;20147;-52
2021/05/03 00:29:46;;;;;;;2.58;2.38;;;10.40;45.00;;;;;;1491966;39;20051;-53
2021/05/03 00:31:07;;;;;;;2.72;2.53;;;10.40;45.00;;;;;;1492180;39;20074;-52
2021/05/03 00:32:29;;;;;;;3.25;2.63;;;10.40;45.10;;;;;;1490096;39;20028;-52
2021/05/03 00:33:50;;;;;;;3.47;2.70;;;10.40;45.10;;;;;;1492011;39;20063;-51
2021/05/03 00:35:11;;;;;;;2.90;2.45;;;10.40;45.20;;;;;;1491592;39;20024;-50
2021/05/03 00:36:32;;;;;;;2.33;2.13;;;10.30;45.00;;;;;;1490553;39;20047;-52
2021/05/03 00:37:53;;;;;;;2.50;2.30;;;10.30;45.00;;;;;;1491100;39;20292;-52
2021/05/03 00:39:14;;;;;;;2.70;2.50;;;10.30;45.00;;;;;;1491834;39;20276;-53
2021/05/03 00:40:35;;;;;;;2.88;2.67;;;10.30;45.00;;;;;;1491138;39;20361;-51
2021/05/03 00:41:56;;;;;;;2.45;2.28;;;10.20;45.00;;;;;;1484953;39;20363;-48
2021/05/03 00:43:19;;;;;;;2.97;2.45;;;10.30;45.10;;;;;;1489962;39;20023;-51
2021/05/03 00:44:40;;;;;;;2.90;2.30;;;10.20;45.10;;;;;;1487906;40;20036;-53
2021/05/03 00:46:01;;;;;;;2.72;2.53;;;10.20;45.30;;;;;;1490405;39;20020;-52
2021/05/03 00:47:23;;;;;;;3.17;2.53;;;10.20;45.30;;;;;;1489528;39;20123;-54
2021/05/03 00:48:45;;;;;;;3.08;2.88;;;10.20;45.30;;;;;;1491196;39;20162;-52
2021/05/03 00:50:09;;;;;;;2.97;2.75;;;10.20;45.40;;;;;;1491642;39;20027;-53
2021/05/03 00:51:30;;;;;;;3.00;2.75;;;10.20;45.60;;;;;;1490054;39;20121;-51
2021/05/03 00:52:51;;;;;;;3.42;2.83;;;10.10;45.40;;;;;;1490308;39;20268;-49
2021/05/03 00:54:12;;;;;;;3.40;2.67;;;10.10;45.40;;;;;;1489539;39;20060;-53
2021/05/03 00:55:33;;;;;;;3.35;3.05;;;10.10;45.50;;;;;;1491120;39;20036;-52
2021/05/03 00:56:54;;;;;;;3.28;2.60;;;10.10;45.50;;;;;;1491241;39;20032;-54
2021/05/03 00:58:15;;;;;;;4.40;2.80;;;10.10;45.50;;;;;;1492173;39;20345;-52
2021/05/03 00:59:36;;;;;;;4.22;2.90;;;10.10;45.50;;;;;;1491814;39;20024;-48
2021/05/03 01:00:57;;;;;;;3.30;2.78;;;10.10;45.60;;;;;;1486292;40;20020;-50
2021/05/03 01:02:20;;;;;;;3.00;2.70;;;10.10;45.60;;;;;;1490452;39;20044;-50
2021/05/03 01:03:40;;;;;;;3.40;3.10;;;10.10;45.60;;;;;;1491826;39;20031;-49
2021/05/03 01:05:02;;;;;;;3.40;2.83;;;10.10;45.60;;;;;;1490744;39;20353;-52
2021/05/03 01:06:22;;;;;;;3.50;3.20;;;10.10;45.70;;;;;;1488348;39;20048;-52
2021/05/03 01:07:43;;;;;;;3.63;3.33;;;10.00;45.60;;;;;;1491749;39;20034;-51
2021/05/03 01:09:05;;;;;;;3.20;2.90;;;10.00;45.60;;;;;;1491571;39;20035;-51
2021/05/03 01:10:28;;;;;;;4.03;3.22;;;10.00;45.70;;;;;;1491986;39;20361;-50
2021/05/03 01:11:48;;;;;;;3.58;3.28;;;10.00;46.00;;;;;;1491478;39;20035;-52
2021/05/03 01:13:09;;;;;;;3.42;3.13;;;10.00;46.00;;;;;;1491368;39;20356;-50
2021/05/03 01:14:30;;;;;;;3.60;3.30;;;10.00;45.90;;;;;;1491595;39;20035;-48
2021/05/03 01:15:51;;;;;;;6.25;3.20;;;10.00;45.90;;;;;;1491212;39;20120;-49
2021/05/03 01:17:12;;;;;;;3.22;2.95;;;10.00;45.80;;;;;;1491326;39;20027;-52
2021/05/03 01:18:37;;;;;;;3.40;3.10;;;10.00;45.80;;;;;;1492174;39;20048;-52
2021/05/03 01:19:58;;;;;;;3.78;3.28;;;10.00;46.00;;;;;;1490526;39;20124;-53
2021/05/03 01:21:29;;;;;;;4.25;3.40;;;10.00;46.00;;;;;;1490040;39;20057;-51
2021/05/03 01:22:51;;;;;;;3.15;2.95;;;10.00;46.20;;;;;;1491479;39;20289;-47
2021/05/03 01:24:12;;;;;;;3.55;3.10;;;9.90;45.90;;;;;;1491396;39;20035;-51
2021/05/03 01:25:39;;;;;;;3.38;3.08;;;9.90;45.90;;;;;;1487103;40;20060;-51
2021/05/03 01:26:59;;;;;;;4.00;3.60;;;9.90;46.00;;;;;;1489659;39;20027;-47
2021/05/03 01:28:20;;;;;;;4.32;3.75;;;9.90;45.90;;;;;;1490398;39;20043;-48
2021/05/03 01:29:41;;;;;;;4.35;3.95;;;9.90;45.90;;;;;;1490923;39;20120;-47
2021/05/03 01:31:02;;;;;;;6.00;4.03;;;9.90;45.90;;;;;;1489489;39;20040;-49
2021/05/03 01:32:23;;;;;;;4.78;3.95;;;9.90;46.00;;;;;;1489023;39;20044;-54
2021/05/03 01:33:44;;;;;;;4.82;4.10;;;9.80;46.00;;;;;;1491474;39;20108;-52
2021/05/03 01:35:05;;;;;;;4.43;3.85;;;9.80;46.00;;;;;;1489787;39;20029;-53
2021/05/03 01:36:26;;;;;;;5.55;4.00;;;9.80;46.10;;;;;;1490611;39;20031;-53
2021/05/03 01:37:52;;;;;;;5.28;4.10;;;9.80;46.20;;;;;;1490428;39;20024;-52
2021/05/03 01:39:15;;;;;;;4.57;4.18;;;9.80;46.50;;;;;;1491119;39;20036;-51
2021/05/03 01:40:40;;;;;;;4.38;3.97;;;9.80;46.40;;;;;;1491964;39;20345;-49
2021/05/03 01:42:01;;;;;;;4.97;4.18;;;9.80;46.40;;;;;;1491892;39;20039;-51
2021/05/03 01:43:25;;;;;;;4.55;4.15;;;9.80;46.40;;;;;;1490412;39;20027;-51
2021/05/03 01:44:46;;;;;;;4.78;3.70;;;9.80;46.40;;;;;;1491373;39;20057;-50
2021/05/03 01:46:07;;;;;;;5.55;4.40;;;9.70;46.30;;;;;;1489440;39;20024;-51
2021/05/03 01:47:28;;;;;;;4.30;3.90;;;9.80;46.30;;;;;;1491142;39;20375;-51
2021/05/03 01:48:49;;;;;;;4.85;3.65;;;9.70;46.30;;;;;;1491624;39;20035;-54
2021/05/03 01:50:11;;;;;;;4.80;4.18;;;9.70;46.40;;;;;;1491928;39;20048;-52
2021/05/03 01:51:32;;;;;;;5.05;4.25;;;9.70;46.50;;;;;;1489931;39;20016;-50
2021/05/03 01:52:53;;;;;;;5.88;4.55;;;9.70;46.50;;;;;;1491832;39;20039;-53
2021/05/03 01:54:14;;;;;;;6.35;4.50;;;9.70;46.50;;;;;;1491119;39;20335;-52
2021/05/03 01:55:36;;;;;;;5.32;4.68;;;9.70;46.60;;;;;;1490945;39;20449;-53
2021/05/03 01:56:57;;;;;;;5.13;4.57;;;9.70;46.70;;;;;;1491662;39;20125;-52
2021/05/03 01:58:18;;;;;;;4.57;4.10;;;9.70;46.60;;;;;;1491168;39;20043;-51
2021/05/03 01:59:39;;;;;;;6.07;4.40;;;9.60;46.60;;;;;;1491038;39;20034;-50
2021/05/03 02:01:01;;;;;;;4.75;4.35;;;9.60;46.50;;;;;;1491523;39;20059;-53
2021/05/03 02:02:22;;;;;;;5.10;4.60;;;9.60;46.60;;;;;;1491675;39;20287;-52
2021/05/03 02:03:43;;;;;;;4.63;4.22;;;9.60;47.10;;;;;;1487033;40;20036;-49
2021/05/03 02:05:05;;;;;;;5.50;4.85;;;9.60;46.60;;;;;;1489711;39;20020;-50
2021/05/03 02:06:25;;;;;;;5.45;4.95;;;9.60;46.70;;;;;;1490853;39;20097;-51
2021/05/03 02:07:57;;;;;;;5.32;4.65;;;9.50;46.70;;;;;;1491108;39;20024;-52
2021/05/03 02:09:17;;;;;;;4.53;4.10;;;9.50;47.00;;;;;;1487271;39;20032;-51
2021/05/03 02:10:39;;;;;;;4.72;4.22;;;9.60;46.80;;;;;;1490353;39;20038;-51
2021/05/03 02:12:00;;;;;;;5.05;4.55;;;9.50;46.80;;;;;;1490324;39;20654;-50
2021/05/03 02:13:22;;;;;;;5.03;4.38;;;9.50;46.90;;;;;;1486807;40;20039;-52
2021/05/03 02:14:43;;;;;;;5.30;4.20;;;9.50;46.90;;;;;;1489180;39;20039;-50
2021/05/03 02:16:05;;;;;;;6.22;4.53;;;9.50;46.90;;;;;;1491081;39;20035;-52
2021/05/03 02:17:26;;;;;;;4.68;4.22;;;9.50;47.00;;;;;;1491793;39;20080;-48
2021/05/03 02:18:47;;;;;;;5.22;4.35;;;9.50;46.90;;;;;;1490851;39;20036;-53
2021/05/03 02:20:08;;;;;;;5.47;4.07;;;9.40;46.90;;;;;;1491407;39;20051;-51
2021/05/03 02:21:30;;;;;;;4.85;4.45;;;9.40;46.90;;;;;;1491193;39;20064;-51
2021/05/03 02:22:50;;;;;;;5.70;4.50;;;9.40;47.00;;;;;;1486774;40;20024;-51
2021/05/03 02:24:11;;;;;;;6.35;4.90;;;9.40;47.00;;;;;;1490714;39;20124;-49
2021/05/03 02:25:32;;;;;;;5.53;4.47;;;9.40;47.10;;;;;;1491240;39;20108;-47
2021/05/03 02:26:53;;;;;;;5.97;4.38;;;9.40;47.10;;;;;;1491806;39;20034;-52
2021/05/03 02:28:14;;;;;;;6.25;5.10;;;9.40;47.20;;;;;;1491499;39;20120;-50
2021/05/03 02:29:35;;;;;;;5.00;4.50;;;9.40;47.10;;;;;;1492180;39;20323;-49
2021/05/03 02:30:56;;;;;;;7.10;5.03;;;9.40;47.10;;;;;;1491227;39;20032;-49
2021/05/03 02:32:17;;;;;;;5.93;4.60;;;9.30;47.10;;;;;;1490963;39;20335;-50
2021/05/03 02:33:38;;;;;;;5.88;4.72;;;9.30;47.20;;;;;;1490844;39;20405;-53
2021/05/03 02:34:58;;;;;;;6.95;5.07;;;9.30;47.30;;;;;;1490666;39;20031;-48
2021/05/03 02:36:19;;;;;;;7.13;4.78;;;9.30;47.20;;;;;;1491566;39;20071;-53
2021/05/03 02:37:40;;;;;;;5.38;4.25;;;9.30;47.30;;;;;;1491527;39;20279;-50
2021/05/03 02:39:01;;;;;;;4.85;4.35;;;9.30;47.40;;;;;;1491264;39;20036;-53
2021/05/03 02:40:26;;;;;;;5.25;4.50;;;9.30;47.50;;;;;;1490787;39;20035;-51
2021/05/03 02:41:47;;;;;;;5.20;4.43;;;9.30;47.60;;;;;;1489960;39;20038;-49
2021/05/03 02:43:08;;;;;;;4.53;4.07;;;9.30;47.60;;;;;;1491576;39;20468;-49
2021/05/03 02:44:29;;;;;;;4.82;4.38;;;9.30;47.50;;;;;;1490404;39;20067;-51
2021/05/03 02:45:50;;;;;;;5.68;4.78;;;9.30;47.50;;;;;;1491069;39;20069;-49
2021/05/03 02:47:11;;;;;;;4.85;4.35;;;9.30;47.50;;;;;;1489138;39;20051;-49
2021/05/03 02:48:33;;;;;;;6.38;4.70;;;9.30;47.60;;;;;;1490759;39;20035;-50
2021/05/03 02:49:53;;;;;;;4.10;3.80;;;9.20;47.50;;;;;;1490346;39;20046;-53
2021/05/03 02:51:14;;;;;;;5.60;4.43;;;9.20;47.40;;;;;;1491304;39;20024;-53
2021/05/03 02:52:36;;;;;;;4.72;4.22;;;9.20;47.40;;;;;;1490038;39;20020;-51
2021/05/03 02:53:56;;;;;;;4.95;4.45;;;9.20;47.40;;;;;;1489970;39;20019;-53
2021/05/03 02:55:18;;;;;;;7.20;4.28;;;9.20;47.40;;;;;;1491200;39;20036;-52
2021/05/03 02:56:39;;;;;;;5.25;4.53;;;9.20;47.40;;;;;;1489779;39;20079;-53
2021/05/03 02:58:00;;;;;;;6.15;4.30;;;9.20;47.50;;;;;;1491151;39;20035;-52
2021/05/03 02:59:21;;;;;;;5.30;4.50;;;9.20;47.60;;;;;;1489856;39;20031;-50
2021/05/03 03:00:42;;;;;;;6.20;4.65;;;9.10;47.50;;;;;;1490603;39;20121;-52
2021/05/03 03:02:03;;;;;;;5.00;4.55;;;9.10;47.50;;;;;;1491532;39;20042;-53
2021/05/03 03:03:24;;;;;;;5.15;4.55;;;9.10;48.00;;;;;;1490114;39;20105;-50
2021/05/03 03:04:45;;;;;;;5.20;4.50;;;9.10;47.50;;;;;;1489738;39;20124;-54
2021/05/03 03:06:05;;;;;;;5.03;4.53;;;9.10;47.50;;;;;;1488826;39;20080;-52
2021/05/03 03:07:26;;;;;;;4.80;3.92;;;9.10;47.60;;;;;;1488997;39;20393;-50
2021/05/03 03:08:47;;;;;;;6.28;4.55;;;9.10;47.70;;;;;;1489040;39;20032;-50
2021/05/03 03:10:09;;;;;;;6.18;4.22;;;9.00;47.70;;;;;;1490267;39;20028;-52
2021/05/03 03:11:30;;;;;;;4.63;4.22;;;9.10;47.80;;;;;;1490285;39;20358;-53
2021/05/03 03:12:51;;;;;;;4.65;4.10;;;9.00;47.80;;;;;;1491130;39;20031;-53
2021/05/03 03:14:12;;;;;;;7.15;4.18;;;9.00;47.80;;;;;;1491588;39;20049;-50
2021/05/03 03:15:36;;;;;;;6.38;4.20;;;9.00;47.90;;;;;;1489903;39;20036;-52
2021/05/03 03:16:57;;;;;;;5.38;3.90;;;9.00;47.90;;;;;;1489538;39;20257;-49
2021/05/03 03:18:20;;;;;;;4.57;4.10;;;9.00;48.00;;;;;;1489288;39;20089;-51
2021/05/03 03:19:42;;;;;;;4.50;4.10;;;9.00;48.00;;;;;;1491091;39;20158;-50
2021/05/03 03:21:03;;;;;;;5.68;4.32;;;9.00;48.10;;;;;;1491190;39;20432;-49
2021/05/03 03:22:24;;;;;;;3.95;3.63;;;8.90;48.00;;;;;;1491394;39;20043;-49
2021/05/03 03:23:45;;;;;;;4.85;4.45;;;9.00;48.10;;;;;;1489477;39;20020;-53
2021/05/03 03:25:07;;;;;;;5.18;4.30;;;9.00;48.10;;;;;;1490914;39;20081;-53
2021/05/03 03:26:27;;;;;;;4.30;3.90;;;9.00;48.10;;;;;;1490431;39;20032;-51
2021/05/03 03:27:49;;;;;;;4.32;3.92;;;8.90;48.20;;;;;;1490112;39;20269;-49
2021/05/03 03:29:10;;;;;;;4.03;3.63;;;8.90;48.10;;;;;;1492104;39;20121;-52
2021/05/03 03:30:31;;;;;;;8.65;4.13;;;8.90;48.10;;;;;;1491370;39;20028;-52
2021/05/03 03:31:52;;;;;;;5.65;4.05;;;8.90;48.10;;;;;;1489440;39;20089;-49
2021/05/03 03:33:12;;;;;;;3.95;3.55;;;8.90;48.20;;;;;;1491088;39;20039;-52
2021/05/03 03:34:33;;;;;;;4.65;4.03;;;8.90;48.30;;;;;;1491603;39;20054;-48
2021/05/03 03:35:54;;;;;;;5.20;4.25;;;8.90;48.40;;;;;;1491592;39;20074;-53
2021/05/03 03:37:15;;;;;;;5.43;3.83;;;8.90;48.50;;;;;;1491220;39;20134;-52
2021/05/03 03:38:36;;;;;;;4.10;3.72;;;8.90;48.40;;;;;;1490777;39;20031;-49
2021/05/03 03:39:57;;;;;;;5.22;4.25;;;8.90;48.40;;;;;;1486871;39;20040;-50
2021/05/03 03:41:18;;;;;;;4.60;4.13;;;8.90;48.50;;;;;;1487242;40;20036;-52
2021/05/03 03:42:39;;;;;;;4.43;4.03;;;8.90;48.60;;;;;;1485750;40;20028;-51
2021/05/03 03:44:04;;;;;;;5.53;4.20;;;8.90;48.70;;;;;;1487279;40;20117;-50
2021/05/03 03:45:25;;;;;;;5.78;4.05;;;8.90;48.90;;;;;;1484461;40;20478;-53
2021/05/03 03:46:46;;;;;;;4.72;4.10;;;8.90;48.70;;;;;;1489324;39;20453;-53
2021/05/03 03:48:08;;;;;;;4.80;4.30;;;8.90;48.70;;;;;;1489366;39;20036;-53
2021/05/03 03:49:29;;;;;;;5.03;4.63;;;8.90;48.80;;;;;;1490330;39;20356;-52
2021/05/03 03:50:50;;;;;;;5.15;4.65;;;8.90;48.80;;;;;;1491204;39;20359;-51
2021/05/03 03:52:11;;;;;;;5.22;4.57;;;8.90;48.90;;;;;;1490974;39;20030;-48
2021/05/03 03:53:32;;;;;;;4.72;3.95;;;8.90;49.00;;;;;;1490368;39;20112;-53
2021/05/03 03:54:53;;;;;;;5.57;4.97;;;8.90;49.00;;;;;;1490092;39;20099;-50
2021/05/03 03:56:15;;;;;;;5.18;4.68;;;8.90;49.00;;;;;;1489786;39;20013;-53
2021/05/03 03:57:36;;;;;;;5.07;4.57;;;8.90;49.00;;;;;;1492016;39;20073;-54
2021/05/03 03:58:57;;;;;;;5.20;4.10;;;8.90;49.10;;;;;;1490242;39;20028;-51
2021/05/03 04:00:19;;;;;;;5.18;4.68;;;8.90;49.00;;;;;;1490496;39;20040;-54
2021/05/03 04:01:41;;;;;;;4.40;4.00;;;8.90;49.00;;;;;;1491127;39;20066;-54
2021/05/03 04:03:05;;;;;;;5.45;4.40;;;8.90;48.90;;;;;;1490348;39;20485;-50
2021/05/03 04:04:29;;;;;;;5.40;4.35;;;8.90;49.10;;;;;;1490945;39;20388;-52
2021/05/03 04:12:37;;;;;;;6.50;4.50;;;8.90;48.60;;;;;;1490709;39;20023;-51
2021/05/03 04:26:23;;;;;;;4.67;4.23;;;8.90;48.70;;;;;;1490470;39;20031;-51
2021/05/03 04:27:44;;;;;;;5.20;4.20;;;8.90;48.80;;;;;;1489837;39;20250;-48
2021/05/03 04:29:05;;;;;;;6.18;4.13;;;8.90;48.80;;;;;;1490970;39;20062;-52
2021/05/03 04:30:26;;;;;;;5.78;4.07;;;8.90;48.80;;;;;;1489199;39;20016;-52
2021/05/03 04:31:48;;;;;;;4.72;4.32;;;8.90;48.80;;;;;;1490629;39;20048;-49
2021/05/03 04:33:09;;;;;;;5.18;4.30;;;8.90;48.90;;;;;;1491260;39;20043;-53
2021/05/03 04:34:30;;;;;;;4.10;3.70;;;8.90;49.00;;;;;;1490663;39;20028;-51
2021/05/03 04:35:51;;;;;;;5.80;4.25;;;8.90;49.00;;;;;;1490839;39;20028;-50
2021/05/03 04:37:12;;;;;;;4.50;4.07;;;8.90;49.00;;;;;;1490828;39;20056;-47
2021/05/03 04:38:33;;;;;;;11.82;4.75;;;8.90;49.20;;;;;;1490425;39;20031;-52
2021/05/03 04:39:54;;;;;;;5.53;4.32;;;8.90;49.20;;;;;;1490348;39;20024;-53
2021/05/03 04:41:15;;;;;;;4.75;4.18;;;8.90;49.20;;;;;;1491137;39;20027;-49
2021/05/03 04:42:37;;;;;;;5.80;4.78;;;8.90;49.20;;;;;;1489082;39;20039;-52
2021/05/03 04:43:58;;;;;;;5.07;4.07;;;8.90;49.20;;;;;;1491607;39;20020;-51
2021/05/03 04:45:18;;;;;;;5.78;4.38;;;8.90;49.20;;;;;;1490179;39;20273;-52
2021/05/03 04:46:39;;;;;;;4.93;4.43;;;8.90;49.20;;;;;;1489560;39;20046;-53
2021/05/03 04:48:01;;;;;;;5.13;4.63;;;8.90;49.20;;;;;;1490070;39;20149;-50
2021/05/03 04:49:22;;;;;;;4.38;3.95;;;9.00;49.30;;;;;;1490835;39;20024;-52
2021/05/03 04:50:43;;;;;;;6.30;4.28;;;8.90;49.20;;;;;;1490996;39;20031;-52
2021/05/03 04:52:04;;;;;;;6.85;4.35;;;9.00;49.20;;;;;;1491377;39;20353;-54
2021/05/03 04:53:25;;;;;;;5.85;4.35;;;9.00;49.10;;;;;;1490933;39;20256;-53
2021/05/03 04:54:46;;;;;;;5.65;4.50;;;9.00;49.10;;;;;;1489240;39;20408;-52
2021/05/03 04:56:07;;;;;;;5.45;4.45;;;9.00;49.10;;;;;;1491219;39;20304;-53
2021/05/03 04:57:28;;;;;;;4.72;4.00;;;9.00;49.10;;;;;;1489872;39;20024;-54
2021/05/03 04:58:49;;;;;;;5.40;4.47;;;9.00;49.20;;;;;;1491268;39;20292;-53
2021/05/03 05:00:10;;;;;;;7.53;4.57;;;9.00;49.20;;;;;;1491268;39;20032;-53
2021/05/03 05:01:31;;;;;;;5.68;4.97;;;9.00;49.20;;;;;;1490792;39;20085;-55
2021/05/03 05:02:52;;;;;;;5.15;4.47;;;9.00;49.20;;;;;;1491189;39;20038;-51
2021/05/03 05:04:13;;;;;;;5.05;4.53;;;9.00;49.10;;;;;;1491715;39;20075;-55
2021/05/03 05:05:34;;;;;;;4.72;4.22;;;9.00;49.10;;;;;;1491931;39;20060;-52
2021/05/03 05:06:58;;;;;;;6.03;4.40;;;9.00;49.10;;;;;;1491893;39;20337;-48
2021/05/03 05:08:19;;;;;;;5.95;4.80;;;9.10;49.10;;;;;;1490943;39;20322;-53
2021/05/03 05:09:40;;;;;;;5.00;4.38;;;9.10;49.20;;;;;;1490941;39;20043;-50
2021/05/03 05:11:01;;;;;;;5.03;4.13;;;9.10;49.20;;;;;;1489533;39;20077;-51
2021/05/03 05:12:22;;;;;;;4.85;4.43;;;9.10;49.20;;;;;;1491384;39;20035;-49
2021/05/03 05:13:43;;;;;;;4.75;4.20;;;9.10;49.20;;;;;;1489938;39;20048;-52
2021/05/03 05:15:06;;;;;;;6.22;4.43;;;9.10;49.10;;;;;;1491002;39;20032;-49
2021/05/03 05:16:27;;;;;;;4.78;4.07;;;9.10;49.10;;;;;;1490084;39;20319;-52
2021/05/03 05:17:49;;;;;;;4.93;4.43;;;9.10;49.10;;;;;;1489887;39;20035;-51
2021/05/03 05:19:10;;;;;;;4.32;3.92;;;9.10;49.10;;;;;;1490780;39;20035;-52
2021/05/03 05:20:31;;;;;;;6.15;4.28;;;9.10;49.20;;;;;;1490267;39;20112;-51
2021/05/03 05:21:52;;;;;;;5.45;4.55;;;9.10;49.10;;;;;;1491343;39;20038;-53
2021/05/03 05:23:13;;;;;;;6.60;4.57;;;9.10;49.10;;;;;;1490690;39;20052;-51
2021/05/03 05:24:35;;;;;;;4.97;4.47;;;9.10;49.10;;;;;;1490903;39;20031;-54
2021/05/03 05:25:56;;;;;;;7.40;4.70;;;9.10;49.10;;;;;;1491260;39;20377;-49
2021/05/03 05:27:17;;;;;;;5.07;4.55;;;9.10;49.10;;;;;;1490857;39;20024;-54
2021/05/03 05:28:38;;;;;;;6.75;5.05;;;9.10;49.10;;;;;;1491642;39;20027;-48
2021/05/03 05:29:59;;;;;;;4.05;3.65;;;9.10;49.10;;;;;;1490749;39;20448;-54
2021/05/03 05:31:20;;;;;;;5.00;4.47;;;9.10;49.10;;;;;;1489686;39;20343;-52
2021/05/03 05:32:41;;;;;;;4.93;4.43;;;9.10;49.20;;;;;;1489766;39;20531;-49
2021/05/03 05:34:02;;;;;;;4.60;4.20;;;9.10;49.20;;;;;;1491586;39;20020;-51
2021/05/03 05:35:23;;;;;;;5.18;4.70;;;9.10;49.20;;;;;;1489631;39;20032;-51
2021/05/03 05:36:44;;;;;;;6.07;4.72;;;9.10;49.20;;;;;;1491510;39;20435;-49
2021/05/03 05:38:05;;;;;;;5.88;5.00;;;9.10;49.20;;;;;;1491979;39;20326;-50
2021/05/03 05:39:26;;;;;;;5.55;4.80;;;9.10;49.20;;;;;;1487728;39;20447;-52
2021/05/03 05:40:46;;;;;;;6.70;5.35;;;9.10;49.30;;;;;;1489608;39;20389;-53
2021/05/03 05:42:07;;;;;;;5.40;4.55;;;9.10;49.40;;;;;;1490590;39;20042;-53
2021/05/03 05:43:28;;;;;;;6.15;5.00;;;9.10;49.50;;;;;;1491104;39;20043;-52
2021/05/03 05:44:49;;;;;;;7.05;5.47;;;9.10;49.40;;;;;;1492018;39;20056;-52
2021/05/03 05:46:10;;;;;;;6.63;5.50;;;9.20;49.50;;;;;;1489984;39;20032;-52
2021/05/03 05:47:31;;;;;;;6.82;5.30;;;9.10;49.40;;;;;;1490631;39;20138;-53
2021/05/03 05:48:52;;;;;;;7.03;5.60;;;9.10;49.40;;;;;;1489597;39;20369;-52
2021/05/03 05:50:13;;;;;;;6.78;5.45;;;9.10;49.40;;;;;;1491048;39;20032;-49
2021/05/03 05:51:34;;;;;;;5.90;5.30;;;9.10;49.40;;;;;;1491610;39;20027;-52
2021/05/03 05:52:55;;;;;;;6.57;5.82;;;9.10;49.50;;;;;;1491738;39;20112;-52
2021/05/03 05:54:16;;;;;;;6.70;5.93;;;9.10;49.60;;;;;;1490010;39;20113;-49
2021/05/03 05:55:37;;;;;;;5.70;5.18;;;9.10;49.60;;;;;;1489604;39;20436;-50
2021/05/03 05:56:58;;;;;;;6.63;5.53;;;9.10;49.70;;;;;;1491762;39;20023;-49
2021/05/03 05:58:19;;;;;;;6.82;5.63;;;9.10;49.70;;;;;;1491741;39;20071;-52
2021/05/03 05:59:40;;;;;;;6.28;5.68;;;9.10;49.70;;;;;;1491517;39;20047;-52
2021/05/03 06:01:03;;;;;;;6.82;5.70;;;9.10;49.80;;;;;;1490948;39;20035;-52
2021/05/03 06:02:24;;;;;;;6.30;5.70;;;9.10;50.00;;;;;;1490364;39;20040;-52
2021/05/03 06:03:44;;;;;;;6.93;6.22;;;9.10;50.00;;;;;;1490157;39;20012;-53
2021/05/03 06:05:06;;;;;;;7.03;5.60;;;9.10;50.00;;;;;;1489820;39;20020;-52
2021/05/03 06:06:27;;;;;;;6.75;5.60;;;9.10;50.10;;;;;;1489127;39;20025;-49
2021/05/03 06:07:48;;;;;;;7.15;5.70;;;9.10;50.20;;;;;;1490945;39;20243;-49
2021/05/03 06:09:09;;;;;;;8.07;5.63;;;9.10;50.30;;;;;;1491113;39;20032;-54
2021/05/03 06:10:31;;;;;;;7.03;6.13;;;9.20;50.40;;;;;;1491343;39;20743;-51
2021/05/03 06:11:52;;;;;;;6.97;6.07;;;9.20;50.40;;;;;;1491727;39;20027;-49
2021/05/03 06:13:13;;;;;;;7.57;5.55;;;9.20;50.40;;;;;;1491218;39;20081;-52
2021/05/03 06:14:34;;;;;;;6.38;5.82;;;9.20;50.50;;;;;;1490732;39;20031;-54
2021/05/03 06:15:55;;;;;;;6.93;6.18;;;9.20;50.50;;;;;;1490608;39;20410;-52
2021/05/03 06:17:16;;;;;;;6.70;6.03;;;9.20;50.50;;;;;;1491560;39;20122;-54
2021/05/03 06:18:37;;;;;;;7.55;5.50;;;9.30;50.60;;;;;;1491552;39;20265;-50
2021/05/03 06:19:58;;;;;;;7.93;6.50;;;9.30;50.60;;;;;;1490199;39;20069;-52
2021/05/03 06:21:19;;;;;;;7.03;6.05;;;9.30;50.70;;;;;;1491229;39;20040;-53
2021/05/03 06:22:39;;;;;;;7.32;6.22;;;9.30;50.60;;;;;;1490815;39;20039;-50
2021/05/03 06:24:00;;;;;;;6.80;6.10;;;9.30;50.60;;;;;;1490809;39;20340;-52
2021/05/03 06:25:21;;;;;;;6.93;5.75;;;9.40;50.60;;;;;;1490596;39;20268;-49
2021/05/03 06:26:42;;;;;;;7.32;6.45;;;9.40;50.60;;;;;;1489716;39;20023;-51
2021/05/03 06:28:03;;;;;;;6.95;5.72;;;9.40;50.60;;;;;;1491372;39;20451;-54
2021/05/03 06:29:24;;;;;;;7.80;6.30;;;9.40;50.60;;;;;;1491228;39;20065;-53
2021/05/03 06:30:46;;;;;;;6.97;6.28;;;9.50;50.70;;;;;;1491280;39;20028;-54
2021/05/03 06:32:07;;;;;;;7.28;6.28;;;9.50;50.70;;;;;;1491194;39;20027;-52
2021/05/03 06:33:28;;;;;;;7.00;6.20;;;9.50;50.80;;;;;;1490356;39;20062;-49
2021/05/03 06:34:49;;;;;;;6.72;6.00;;;9.50;50.70;;;;;;1491560;39;20071;-54
2021/05/03 06:36:10;;;;;;;9.35;6.70;;;9.60;50.90;;;;;;1490991;39;20028;-51
2021/05/03 06:37:31;;;;;;;7.40;6.68;;;9.60;50.80;;;;;;1490413;39;20035;-49
2021/05/03 06:38:52;;;;;;;9.68;6.30;;;9.60;50.80;;;;;;1491393;39;20270;-50
2021/05/03 06:40:13;;;;;;;7.70;6.25;;;9.60;50.80;;;;;;1491138;39;20035;-49
2021/05/03 06:41:34;;;;;;;7.55;6.80;;;9.60;50.90;;;;;;1491209;39;20016;-52
2021/05/03 06:42:55;;;;;;;7.63;6.15;;;9.60;51.00;;;;;;1491496;39;20058;-51
2021/05/03 06:44:16;;;;;;;8.40;6.60;;;9.70;51.00;;;;;;1491459;39;20032;-48
2021/05/03 06:45:37;;;;;;;7.53;6.25;;;9.70;51.00;;;;;;1491087;39;20355;-48
2021/05/03 06:47:00;;;;;;;7.20;6.07;;;9.70;51.10;;;;;;1490906;39;20038;-49
2021/05/03 06:48:21;;;;;;;8.45;6.20;;;9.80;51.20;;;;;;1491496;39;20024;-53
2021/05/03 06:49:42;;;;;;;8.25;6.45;;;9.80;51.20;;;;;;1490941;39;20276;-53
2021/05/03 06:51:03;;;;;;;6.32;5.72;;;9.90;51.20;;;;;;1491873;39;20248;-51
2021/05/03 06:52:24;;;;;;;7.97;6.20;;;9.90;51.20;;;;;;1490364;39;20061;-52
2021/05/03 06:53:45;;;;;;;10.68;6.90;;;10.00;51.30;;;;;;1490970;39;20028;-53
2021/05/03 06:55:07;;;;;;;7.47;6.18;;;10.00;51.20;;;;;;1491089;39;20024;-49
2021/05/03 06:56:28;;;;;;;8.13;6.50;;;10.10;51.30;;;;;;1491176;39;20059;-52
2021/05/03 06:57:49;;;;;;;7.65;5.72;;;10.10;51.20;;;;;;1491351;39;20055;-52
2021/05/03 06:59:10;;;;;;;11.48;6.30;;;10.10;51.10;;;;;;1491454;39;20031;-53
2021/05/03 07:00:32;;;;;;;9.18;6.18;;;10.20;51.10;;;;;;1490472;39;20067;-48
2021/05/03 07:01:53;;;;;;;7.82;5.80;;;10.20;51.00;;;;;;1490991;39;20038;-50
2021/05/03 07:03:14;;;;;;;6.53;5.78;;;10.30;51.00;;;;;;1491124;39;20043;-51
2021/05/03 07:04:36;;;;;;;6.90;5.40;;;10.30;51.00;;;;;;1490516;39;20046;-50
2021/05/03 07:05:57;;;;;;;6.90;5.80;;;10.40;51.00;;;;;;1491544;39;20040;-51
2021/05/03 07:07:18;;;;;;;6.75;5.93;;;10.40;51.00;;;;;;1491167;39;20020;-52
2021/05/03 07:08:39;;;;;;;6.22;5.63;;;10.40;50.90;;;;;;1490935;39;20034;-52
2021/05/03 07:10:00;;;;;;;8.68;6.25;;;10.50;51.00;;;;;;1490665;39;20058;-51
2021/05/03 07:11:23;;;;;;;8.93;5.55;;;10.60;50.80;;;;;;1490611;39;20032;-48
2021/05/03 07:12:47;;;;;;;6.80;5.18;;;10.60;50.60;;;;;;1489469;39;20495;-51
2021/05/03 07:14:08;;;;;;;5.43;4.90;;;10.70;50.60;;;;;;1491216;39;20024;-51
2021/05/03 07:15:29;;;;;;;7.68;5.40;;;10.70;50.30;;;;;;1491299;39;20098;-51
2021/05/03 07:16:49;;;;;;;6.03;5.40;;;10.80;50.20;;;;;;1490035;39;20234;-52
2021/05/03 07:18:10;;;;;;;7.28;5.22;;;10.80;49.90;;;;;;1488895;39;20036;-51
2021/05/03 07:19:35;;;;;;;6.30;5.20;;;10.90;49.70;;;;;;1491227;39;20089;-50
2021/05/03 07:20:57;;;;;;;6.15;4.93;;;11.00;49.60;;;;;;1490996;39;20047;-53
2021/05/03 07:22:18;;;;;;;6.30;5.13;;;11.00;49.40;;;;;;1490749;39;20032;-51
2021/05/03 07:23:39;;;;;;;5.03;4.60;;;11.10;49.40;;;;;;1489221;39;20476;-53
2021/05/03 07:25:02;;;;;;;9.73;5.03;;;11.10;49.30;;;;;;1491600;39;20031;-52
2021/05/03 07:26:23;;;;;;;5.50;4.63;;;11.20;49.30;;;;;;1487726;39;20340;-50